sensor_id;sensor_type;location;lat;lon;timestamp;P1;durP1;ratioP1;P2;durP2;ratioP2
45476;SDS011;31958;51.756;-2.556;2024-02-14T00:02:07;7.80;;;1.90;;
45476;SDS011;31958;51.756;-2.556;2024-02-14T00:04:32;14.63;;;1.63;;
45476;SDS011;31958;51.756;-2.556;2024-02-14T00:06:58;12.18;;;2.53;;
45476;SDS011;31958;51.756;-2.556;2024-02-14T00:09:23;11.85;;;2.03;;
45476;SDS011;31958;51.756;-2.556;2024-02-14T00:11:49;4.90;;;1.15;;
45476;SDS011;31958;51.756;-2.556;2024-02-14T00:14:14;8.43;;;2.22;;
45476;SDS011;31958;51.756;-2.556;2024-02-14T00:16:39;5.95;;;2.00;;
45476;SDS011;31958;51.756;-2.556;2024-02-14T00:19:05;10.20;;;1.40;;
45476;SDS011;31958;51.756;-2.556;2024-02-14T00:21:30;9.13;;;1.40;;
45476;SDS011;31958;51.756;-2.556;2024-02-14T00:23:56;15.02;;;1.50;;
45476;SDS011;31958;51.756;-2.556;2024-02-14T00:26:23;3.90;;;1.60;;
45476;SDS011;31958;51.756;-2.556;2024-02-14T00:28:49;9.18;;;1.98;;
45476;SDS011;31958;51.756;-2.556;2024-02-14T00:31:14;10.18;;;2.30;;
45476;SDS011;31958;51.756;-2.556;2024-02-14T00:33:39;6.85;;;2.15;;
45476;SDS011;31958;51.756;-2.556;2024-02-14T00:36:06;13.38;;;2.58;;
45476;SDS011;31958;51.756;-2.556;2024-02-14T00:38:31;11.07;;;2.00;;
45476;SDS011;31958;51.756;-2.556;2024-02-14T00:40:57;12.18;;;1.98;;
45476;SDS011;31958;51.756;-2.556;2024-02-14T00:43:22;14.45;;;2.33;;
45476;SDS011;31958;51.756;-2.556;2024-02-14T00:45:47;13.48;;;2.10;;
45476;SDS011;31958;51.756;-2.556;2024-02-14T00:48:13;24.92;;;2.17;;
45476;SDS011;31958;51.756;-2.556;2024-02-14T00:50:38;13.38;;;2.25;;
45476;SDS011;31958;51.756;-2.556;2024-02-14T00:53:03;14.20;;;2.15;;
45476;SDS011;31958;51.756;-2.556;2024-02-14T00:55:29;16.15;;;2.78;;
45476;SDS011;31958;51.756;-2.556;2024-02-14T00:57:54;20.02;;;2.50;;
45476;SDS011;31958;51.756;-2.556;2024-02-14T01:00:19;14.05;;;1.88;;
45476;SDS011;31958;51.756;-2.556;2024-02-14T01:02:45;19.98;;;2.90;;
45476;SDS011;31958;51.756;-2.556;2024-02-14T01:05:10;13.05;;;2.22;;
45476;SDS011;31958;51.756;-2.556;2024-02-14T01:07:36;12.15;;;1.80;;
45476;SDS011;31958;51.756;-2.556;2024-02-14T01:10:01;15.02;;;2.00;;
45476;SDS011;31958;51.756;-2.556;2024-02-14T01:12:27;12.90;;;2.00;;
45476;SDS011;31958;51.756;-2.556;2024-02-14T01:14:54;22.45;;;2.60;;
45476;SDS011;31958;51.756;-2.556;2024-02-14T01:17:19;20.40;;;2.00;;
45476;SDS011;31958;51.756;-2.556;2024-02-14T01:19:45;19.10;;;2.05;;
45476;SDS011;31958;51.756;-2.556;2024-02-14T01:22:10;14.88;;;1.67;;
45476;SDS011;31958;51.756;-2.556;2024-02-14T01:24:36;14.27;;;1.92;;
45476;SDS011;31958;51.756;-2.556;2024-02-14T01:27:01;14.10;;;1.90;;
45476;SDS011;31958;51.756;-2.556;2024-02-14T01:29:27;15.02;;;1.98;;
45476;SDS011;31958;51.756;-2.556;2024-02-14T01:31:53;9.70;;;1.98;;
45476;SDS011;31958;51.756;-2.556;2024-02-14T01:34:19;10.18;;;2.33;;
45476;SDS011;31958;51.756;-2.556;2024-02-14T01:36:45;15.73;;;1.90;;
45476;SDS011;31958;51.756;-2.556;2024-02-14T01:39:11;18.48;;;1.77;;
45476;SDS011;31958;51.756;-2.556;2024-02-14T01:41:37;18.27;;;2.15;;
45476;SDS011;31958;51.756;-2.556;2024-02-14T01:44:03;8.02;;;1.50;;
45476;SDS011;31958;51.756;-2.556;2024-02-14T01:46:28;11.65;;;1.70;;
45476;SDS011;31958;51.756;-2.556;2024-02-14T01:48:54;9.35;;;1.45;;
45476;SDS011;31958;51.756;-2.556;2024-02-14T01:51:20;9.10;;;1.25;;
45476;SDS011;31958;51.756;-2.556;2024-02-14T01:53:49;5.57;;;1.00;;
45476;SDS011;31958;51.756;-2.556;2024-02-14T01:56:14;9.43;;;1.15;;
45476;SDS011;31958;51.756;-2.556;2024-02-14T01:58:41;3.50;;;0.85;;
45476;SDS011;31958;51.756;-2.556;2024-02-14T02:01:07;4.68;;;1.20;;
45476;SDS011;31958;51.756;-2.556;2024-02-14T02:03:35;8.70;;;1.17;;
45476;SDS011;31958;51.756;-2.556;2024-02-14T02:06:01;8.90;;;1.35;;
45476;SDS011;31958;51.756;-2.556;2024-02-14T02:08:26;5.72;;;0.90;;
45476;SDS011;31958;51.756;-2.556;2024-02-14T02:10:52;10.07;;;1.13;;
45476;SDS011;31958;51.756;-2.556;2024-02-14T02:13:17;6.18;;;1.48;;
45476;SDS011;31958;51.756;-2.556;2024-02-14T02:15:43;6.03;;;0.85;;
45476;SDS011;31958;51.756;-2.556;2024-02-14T02:18:11;7.03;;;1.20;;
45476;SDS011;31958;51.756;-2.556;2024-02-14T02:20:37;6.18;;;1.00;;
45476;SDS011;31958;51.756;-2.556;2024-02-14T02:23:03;5.13;;;1.20;;
45476;SDS011;31958;51.756;-2.556;2024-02-14T02:25:28;7.53;;;0.95;;
45476;SDS011;31958;51.756;-2.556;2024-02-14T02:27:54;4.28;;;0.80;;
45476;SDS011;31958;51.756;-2.556;2024-02-14T02:30:22;2.85;;;0.90;;
45476;SDS011;31958;51.756;-2.556;2024-02-14T02:32:47;5.28;;;0.60;;
45476;SDS011;31958;51.756;-2.556;2024-02-14T02:35:13;3.20;;;0.80;;
45476;SDS011;31958;51.756;-2.556;2024-02-14T02:37:38;4.85;;;0.80;;
45476;SDS011;31958;51.756;-2.556;2024-02-14T02:40:03;10.10;;;0.80;;
45476;SDS011;31958;51.756;-2.556;2024-02-14T02:42:29;6.03;;;0.85;;
45476;SDS011;31958;51.756;-2.556;2024-02-14T02:44:55;9.30;;;0.80;;
45476;SDS011;31958;51.756;-2.556;2024-02-14T02:47:20;7.32;;;1.10;;
45476;SDS011;31958;51.756;-2.556;2024-02-14T02:49:45;5.75;;;1.15;;
45476;SDS011;31958;51.756;-2.556;2024-02-14T02:52:11;4.95;;;1.15;;
45476;SDS011;31958;51.756;-2.556;2024-02-14T02:54:37;9.35;;;1.23;;
45476;SDS011;31958;51.756;-2.556;2024-02-14T02:57:06;12.40;;;1.23;;
45476;SDS011;31958;51.756;-2.556;2024-02-14T02:59:32;9.40;;;1.52;;
45476;SDS011;31958;51.756;-2.556;2024-02-14T03:01:57;10.80;;;1.23;;
45476;SDS011;31958;51.756;-2.556;2024-02-14T03:04:23;4.57;;;0.85;;
45476;SDS011;31958;51.756;-2.556;2024-02-14T03:06:49;4.90;;;1.00;;
45476;SDS011;31958;51.756;-2.556;2024-02-14T03:09:14;3.15;;;0.57;;
45476;SDS011;31958;51.756;-2.556;2024-02-14T03:11:40;3.38;;;0.98;;
45476;SDS011;31958;51.756;-2.556;2024-02-14T03:14:05;8.07;;;1.17;;
45476;SDS011;31958;51.756;-2.556;2024-02-14T03:16:32;5.13;;;0.85;;
45476;SDS011;31958;51.756;-2.556;2024-02-14T03:18:58;5.28;;;1.13;;
45476;SDS011;31958;51.756;-2.556;2024-02-14T03:21:23;4.70;;;0.82;;
45476;SDS011;31958;51.756;-2.556;2024-02-14T03:23:49;3.75;;;0.90;;
45476;SDS011;31958;51.756;-2.556;2024-02-14T03:26:14;6.22;;;0.98;;
45476;SDS011;31958;51.756;-2.556;2024-02-14T03:28:39;4.68;;;0.85;;
45476;SDS011;31958;51.756;-2.556;2024-02-14T03:31:05;6.22;;;1.15;;
45476;SDS011;31958;51.756;-2.556;2024-02-14T03:33:30;5.03;;;1.15;;
45476;SDS011;31958;51.756;-2.556;2024-02-14T03:35:55;9.30;;;1.02;;
45476;SDS011;31958;51.756;-2.556;2024-02-14T03:38:25;2.67;;;0.90;;
45476;SDS011;31958;51.756;-2.556;2024-02-14T03:40:51;7.65;;;1.02;;
45476;SDS011;31958;51.756;-2.556;2024-02-14T03:43:16;5.10;;;0.93;;
45476;SDS011;31958;51.756;-2.556;2024-02-14T03:45:42;9.02;;;1.67;;
45476;SDS011;31958;51.756;-2.556;2024-02-14T03:48:07;5.38;;;0.88;;
45476;SDS011;31958;51.756;-2.556;2024-02-14T03:50:34;9.75;;;1.10;;
45476;SDS011;31958;51.756;-2.556;2024-02-14T03:53:00;10.68;;;1.10;;
45476;SDS011;31958;51.756;-2.556;2024-02-14T03:55:26;5.35;;;0.98;;
45476;SDS011;31958;51.756;-2.556;2024-02-14T03:57:52;5.00;;;1.00;;
45476;SDS011;31958;51.756;-2.556;2024-02-14T04:00:17;9.50;;;1.73;;
45476;SDS011;31958;51.756;-2.556;2024-02-14T04:02:43;3.95;;;0.88;;
45476;SDS011;31958;51.756;-2.556;2024-02-14T04:05:08;4.72;;;0.93;;
45476;SDS011;31958;51.756;-2.556;2024-02-14T04:07:34;3.88;;;1.00;;
45476;SDS011;31958;51.756;-2.556;2024-02-14T04:09:59;3.17;;;0.65;;
45476;SDS011;31958;51.756;-2.556;2024-02-14T04:12:25;4.53;;;0.90;;
45476;SDS011;31958;51.756;-2.556;2024-02-14T04:14:50;5.00;;;0.98;;
45476;SDS011;31958;51.756;-2.556;2024-02-14T04:17:15;3.40;;;0.95;;
45476;SDS011;31958;51.756;-2.556;2024-02-14T04:19:41;4.70;;;0.80;;
45476;SDS011;31958;51.756;-2.556;2024-02-14T04:22:06;2.13;;;0.68;;
45476;SDS011;31958;51.756;-2.556;2024-02-14T04:24:33;4.95;;;0.90;;
45476;SDS011;31958;51.756;-2.556;2024-02-14T04:26:59;3.65;;;0.80;;
45476;SDS011;31958;51.756;-2.556;2024-02-14T04:29:26;1.95;;;0.57;;
45476;SDS011;31958;51.756;-2.556;2024-02-14T04:31:53;8.38;;;0.90;;
45476;SDS011;31958;51.756;-2.556;2024-02-14T04:34:18;4.35;;;0.88;;
45476;SDS011;31958;51.756;-2.556;2024-02-14T04:36:44;4.20;;;0.80;;
45476;SDS011;31958;51.756;-2.556;2024-02-14T04:39:10;2.22;;;0.70;;
45476;SDS011;31958;51.756;-2.556;2024-02-14T04:41:35;4.15;;;0.70;;
45476;SDS011;31958;51.756;-2.556;2024-02-14T04:44:02;1.83;;;0.70;;
45476;SDS011;31958;51.756;-2.556;2024-02-14T04:46:31;7.60;;;0.75;;
45476;SDS011;31958;51.756;-2.556;2024-02-14T04:48:57;3.92;;;0.63;;
45476;SDS011;31958;51.756;-2.556;2024-02-14T04:51:22;2.50;;;0.60;;
45476;SDS011;31958;51.756;-2.556;2024-02-14T04:53:48;3.60;;;0.88;;
45476;SDS011;31958;51.756;-2.556;2024-02-14T04:56:13;1.73;;;0.57;;
45476;SDS011;31958;51.756;-2.556;2024-02-14T04:58:38;6.15;;;1.08;;
45476;SDS011;31958;51.756;-2.556;2024-02-14T05:01:04;3.80;;;0.80;;
45476;SDS011;31958;51.756;-2.556;2024-02-14T05:03:29;2.97;;;0.50;;
45476;SDS011;31958;51.756;-2.556;2024-02-14T05:05:54;5.25;;;0.60;;
45476;SDS011;31958;51.756;-2.556;2024-02-14T05:08:20;3.97;;;0.73;;
45476;SDS011;31958;51.756;-2.556;2024-02-14T05:10:45;2.17;;;0.57;;
45476;SDS011;31958;51.756;-2.556;2024-02-14T05:13:11;5.72;;;0.90;;
45476;SDS011;31958;51.756;-2.556;2024-02-14T05:15:36;3.22;;;0.80;;
45476;SDS011;31958;51.756;-2.556;2024-02-14T05:18:01;10.95;;;1.15;;
45476;SDS011;31958;51.756;-2.556;2024-02-14T05:20:27;4.60;;;0.70;;
45476;SDS011;31958;51.756;-2.556;2024-02-14T05:22:53;4.03;;;1.10;;
45476;SDS011;31958;51.756;-2.556;2024-02-14T05:25:19;6.85;;;0.90;;
45476;SDS011;31958;51.756;-2.556;2024-02-14T05:27:44;7.78;;;1.00;;
45476;SDS011;31958;51.756;-2.556;2024-02-14T05:30:12;7.90;;;1.40;;
45476;SDS011;31958;51.756;-2.556;2024-02-14T05:32:37;8.30;;;1.58;;
45476;SDS011;31958;51.756;-2.556;2024-02-14T05:35:04;6.13;;;1.17;;
45476;SDS011;31958;51.756;-2.556;2024-02-14T05:37:31;12.95;;;1.63;;
45476;SDS011;31958;51.756;-2.556;2024-02-14T05:39:56;4.85;;;1.40;;
45476;SDS011;31958;51.756;-2.556;2024-02-14T05:42:22;11.70;;;1.70;;
45476;SDS011;31958;51.756;-2.556;2024-02-14T05:44:47;10.32;;;1.52;;
45476;SDS011;31958;51.756;-2.556;2024-02-14T05:47:13;7.97;;;2.03;;
45476;SDS011;31958;51.756;-2.556;2024-02-14T05:49:39;12.75;;;1.50;;
45476;SDS011;31958;51.756;-2.556;2024-02-14T05:52:05;15.13;;;1.80;;
45476;SDS011;31958;51.756;-2.556;2024-02-14T05:54:31;9.98;;;2.08;;
45476;SDS011;31958;51.756;-2.556;2024-02-14T05:56:56;7.28;;;1.58;;
45476;SDS011;31958;51.756;-2.556;2024-02-14T05:59:22;7.45;;;1.38;;
45476;SDS011;31958;51.756;-2.556;2024-02-14T06:01:48;5.95;;;1.40;;
45476;SDS011;31958;51.756;-2.556;2024-02-14T06:04:13;4.10;;;1.00;;
45476;SDS011;31958;51.756;-2.556;2024-02-14T06:06:38;8.38;;;1.17;;
45476;SDS011;31958;51.756;-2.556;2024-02-14T06:09:04;5.90;;;0.95;;
45476;SDS011;31958;51.756;-2.556;2024-02-14T06:11:34;4.13;;;1.00;;
45476;SDS011;31958;51.756;-2.556;2024-02-14T06:14:00;2.92;;;1.30;;
45476;SDS011;31958;51.756;-2.556;2024-02-14T06:16:25;2.50;;;0.90;;
45476;SDS011;31958;51.756;-2.556;2024-02-14T06:18:51;6.68;;;1.50;;
45476;SDS011;31958;51.756;-2.556;2024-02-14T06:21:16;4.22;;;1.20;;
45476;SDS011;31958;51.756;-2.556;2024-02-14T06:23:41;3.05;;;1.00;;
45476;SDS011;31958;51.756;-2.556;2024-02-14T06:26:06;6.00;;;1.02;;
45476;SDS011;31958;51.756;-2.556;2024-02-14T06:28:32;2.20;;;0.95;;
45476;SDS011;31958;51.756;-2.556;2024-02-14T06:30:57;3.25;;;0.90;;
45476;SDS011;31958;51.756;-2.556;2024-02-14T06:33:22;9.60;;;1.48;;
45476;SDS011;31958;51.756;-2.556;2024-02-14T06:35:48;6.00;;;1.23;;
45476;SDS011;31958;51.756;-2.556;2024-02-14T06:38:13;5.20;;;1.35;;
45476;SDS011;31958;51.756;-2.556;2024-02-14T06:40:39;3.08;;;1.33;;
45476;SDS011;31958;51.756;-2.556;2024-02-14T06:43:05;2.60;;;1.10;;
45476;SDS011;31958;51.756;-2.556;2024-02-14T06:45:32;3.97;;;1.10;;
45476;SDS011;31958;51.756;-2.556;2024-02-14T06:47:57;5.47;;;1.00;;
45476;SDS011;31958;51.756;-2.556;2024-02-14T06:50:23;2.30;;;1.00;;
45476;SDS011;31958;51.756;-2.556;2024-02-14T06:52:50;3.85;;;1.27;;
45476;SDS011;31958;51.756;-2.556;2024-02-14T06:55:16;7.05;;;1.20;;
45476;SDS011;31958;51.756;-2.556;2024-02-14T06:57:42;3.85;;;1.50;;
45476;SDS011;31958;51.756;-2.556;2024-02-14T07:00:07;5.18;;;1.10;;
45476;SDS011;31958;51.756;-2.556;2024-02-14T07:02:33;4.65;;;1.52;;
45476;SDS011;31958;51.756;-2.556;2024-02-14T07:04:59;3.03;;;1.10;;
45476;SDS011;31958;51.756;-2.556;2024-02-14T07:07:24;3.92;;;1.42;;
45476;SDS011;31958;51.756;-2.556;2024-02-14T07:09:50;3.38;;;1.50;;
45476;SDS011;31958;51.756;-2.556;2024-02-14T07:12:16;4.82;;;1.60;;
45476;SDS011;31958;51.756;-2.556;2024-02-14T07:14:41;4.70;;;1.85;;
45476;SDS011;31958;51.756;-2.556;2024-02-14T07:17:07;7.82;;;1.35;;
45476;SDS011;31958;51.756;-2.556;2024-02-14T07:19:32;5.97;;;1.40;;
45476;SDS011;31958;51.756;-2.556;2024-02-14T07:21:57;5.68;;;1.67;;
45476;SDS011;31958;51.756;-2.556;2024-02-14T07:24:23;4.72;;;1.35;;
45476;SDS011;31958;51.756;-2.556;2024-02-14T07:26:48;3.10;;;1.10;;
45476;SDS011;31958;51.756;-2.556;2024-02-14T07:29:13;2.75;;;1.27;;
45476;SDS011;31958;51.756;-2.556;2024-02-14T07:31:39;1.95;;;1.05;;
45476;SDS011;31958;51.756;-2.556;2024-02-14T07:34:04;5.53;;;1.00;;
45476;SDS011;31958;51.756;-2.556;2024-02-14T07:36:31;5.68;;;1.08;;
45476;SDS011;31958;51.756;-2.556;2024-02-14T07:38:56;3.70;;;1.65;;
45476;SDS011;31958;51.756;-2.556;2024-02-14T07:41:22;6.13;;;1.65;;
45476;SDS011;31958;51.756;-2.556;2024-02-14T07:43:47;7.13;;;1.10;;
45476;SDS011;31958;51.756;-2.556;2024-02-14T07:46:19;3.53;;;1.20;;
45476;SDS011;31958;51.756;-2.556;2024-02-14T07:48:45;3.60;;;1.80;;
45476;SDS011;31958;51.756;-2.556;2024-02-14T07:51:10;2.88;;;0.80;;
45476;SDS011;31958;51.756;-2.556;2024-02-14T07:53:36;4.38;;;1.00;;
45476;SDS011;31958;51.756;-2.556;2024-02-14T07:56:01;2.25;;;0.75;;
45476;SDS011;31958;51.756;-2.556;2024-02-14T07:58:26;1.55;;;0.70;;
45476;SDS011;31958;51.756;-2.556;2024-02-14T08:00:52;2.55;;;0.90;;
45476;SDS011;31958;51.756;-2.556;2024-02-14T08:03:17;2.00;;;0.77;;
45476;SDS011;31958;51.756;-2.556;2024-02-14T08:05:42;1.65;;;0.90;;
45476;SDS011;31958;51.756;-2.556;2024-02-14T08:08:08;2.47;;;1.20;;
45476;SDS011;31958;51.756;-2.556;2024-02-14T08:10:33;5.90;;;2.42;;
45476;SDS011;31958;51.756;-2.556;2024-02-14T08:12:58;8.20;;;3.30;;
45476;SDS011;31958;51.756;-2.556;2024-02-14T08:15:24;6.70;;;3.85;;
45476;SDS011;31958;51.756;-2.556;2024-02-14T08:17:49;4.25;;;2.00;;
45476;SDS011;31958;51.756;-2.556;2024-02-14T08:20:15;5.28;;;1.67;;
45476;SDS011;31958;51.756;-2.556;2024-02-14T08:22:40;5.88;;;2.83;;
45476;SDS011;31958;51.756;-2.556;2024-02-14T08:25:05;8.15;;;3.58;;
45476;SDS011;31958;51.756;-2.556;2024-02-14T08:27:32;7.47;;;2.70;;
45476;SDS011;31958;51.756;-2.556;2024-02-14T08:29:57;6.72;;;2.63;;
45476;SDS011;31958;51.756;-2.556;2024-02-14T08:32:22;6.60;;;2.88;;
45476;SDS011;31958;51.756;-2.556;2024-02-14T08:34:48;1.60;;;0.95;;
45476;SDS011;31958;51.756;-2.556;2024-02-14T08:37:15;3.67;;;1.92;;
45476;SDS011;31958;51.756;-2.556;2024-02-14T08:39:40;8.98;;;4.05;;
45476;SDS011;31958;51.756;-2.556;2024-02-14T08:42:06;7.13;;;3.53;;
45476;SDS011;31958;51.756;-2.556;2024-02-14T08:44:33;11.45;;;5.25;;
45476;SDS011;31958;51.756;-2.556;2024-02-14T08:46:59;6.25;;;2.72;;
45476;SDS011;31958;51.756;-2.556;2024-02-14T08:49:25;5.35;;;2.83;;
45476;SDS011;31958;51.756;-2.556;2024-02-14T08:51:50;2.20;;;1.30;;
45476;SDS011;31958;51.756;-2.556;2024-02-14T08:54:15;3.47;;;1.60;;
45476;SDS011;31958;51.756;-2.556;2024-02-14T08:56:41;3.28;;;1.60;;
45476;SDS011;31958;51.756;-2.556;2024-02-14T08:59:06;3.30;;;1.10;;
45476;SDS011;31958;51.756;-2.556;2024-02-14T09:01:32;1.67;;;0.90;;
45476;SDS011;31958;51.756;-2.556;2024-02-14T09:03:58;5.07;;;1.95;;
45476;SDS011;31958;51.756;-2.556;2024-02-14T09:06:24;3.55;;;1.98;;
45476;SDS011;31958;51.756;-2.556;2024-02-14T09:08:51;1.92;;;0.73;;
45476;SDS011;31958;51.756;-2.556;2024-02-14T09:11:17;1.25;;;0.68;;
45476;SDS011;31958;51.756;-2.556;2024-02-14T09:13:42;3.85;;;1.35;;
45476;SDS011;31958;51.756;-2.556;2024-02-14T09:16:08;1.45;;;0.70;;
45476;SDS011;31958;51.756;-2.556;2024-02-14T09:18:34;1.73;;;0.60;;
45476;SDS011;31958;51.756;-2.556;2024-02-14T09:21:00;3.35;;;0.50;;
45476;SDS011;31958;51.756;-2.556;2024-02-14T09:23:26;3.38;;;0.60;;
45476;SDS011;31958;51.756;-2.556;2024-02-14T09:25:51;2.95;;;0.50;;
45476;SDS011;31958;51.756;-2.556;2024-02-14T09:28:17;1.30;;;0.70;;
45476;SDS011;31958;51.756;-2.556;2024-02-14T09:30:42;8.20;;;3.50;;
45476;SDS011;31958;51.756;-2.556;2024-02-14T09:33:08;10.77;;;4.85;;
45476;SDS011;31958;51.756;-2.556;2024-02-14T09:35:33;3.58;;;1.50;;
45476;SDS011;31958;51.756;-2.556;2024-02-14T09:38:00;4.25;;;0.60;;
45476;SDS011;31958;51.756;-2.556;2024-02-14T09:40:26;1.30;;;0.50;;
45476;SDS011;31958;51.756;-2.556;2024-02-14T09:42:55;0.32;;;0.30;;
45476;SDS011;31958;51.756;-2.556;2024-02-14T09:45:24;1.23;;;0.30;;
45476;SDS011;31958;51.756;-2.556;2024-02-14T09:47:50;0.75;;;0.40;;
45476;SDS011;31958;51.756;-2.556;2024-02-14T09:50:16;1.00;;;0.52;;
45476;SDS011;31958;51.756;-2.556;2024-02-14T09:52:42;0.50;;;0.22;;
45476;SDS011;31958;51.756;-2.556;2024-02-14T09:55:08;0.93;;;0.32;;
45476;SDS011;31958;51.756;-2.556;2024-02-14T09:57:34;1.95;;;0.40;;
45476;SDS011;31958;51.756;-2.556;2024-02-14T10:00:01;0.60;;;0.35;;
45476;SDS011;31958;51.756;-2.556;2024-02-14T10:02:28;0.90;;;0.50;;
45476;SDS011;31958;51.756;-2.556;2024-02-14T10:04:55;0.30;;;0.30;;
45476;SDS011;31958;51.756;-2.556;2024-02-14T10:07:20;1.85;;;0.50;;
45476;SDS011;31958;51.756;-2.556;2024-02-14T10:09:45;2.53;;;0.40;;
45476;SDS011;31958;51.756;-2.556;2024-02-14T10:12:11;2.65;;;0.40;;
45476;SDS011;31958;51.756;-2.556;2024-02-14T10:14:36;1.70;;;0.55;;
45476;SDS011;31958;51.756;-2.556;2024-02-14T10:17:03;1.63;;;0.40;;
45476;SDS011;31958;51.756;-2.556;2024-02-14T10:19:29;2.20;;;0.40;;
45476;SDS011;31958;51.756;-2.556;2024-02-14T10:21:55;1.00;;;0.32;;
45476;SDS011;31958;51.756;-2.556;2024-02-14T10:24:23;3.03;;;0.50;;
45476;SDS011;31958;51.756;-2.556;2024-02-14T10:26:50;1.05;;;0.40;;
45476;SDS011;31958;51.756;-2.556;2024-02-14T10:29:15;3.65;;;0.60;;
45476;SDS011;31958;51.756;-2.556;2024-02-14T10:31:40;1.50;;;0.60;;
45476;SDS011;31958;51.756;-2.556;2024-02-14T10:34:06;9.13;;;0.80;;
45476;SDS011;31958;51.756;-2.556;2024-02-14T10:36:31;3.47;;;0.80;;
45476;SDS011;31958;51.756;-2.556;2024-02-14T10:38:59;4.00;;;1.42;;
45476;SDS011;31958;51.756;-2.556;2024-02-14T10:41:26;3.08;;;0.70;;
45476;SDS011;31958;51.756;-2.556;2024-02-14T10:43:51;3.85;;;0.70;;
45476;SDS011;31958;51.756;-2.556;2024-02-14T10:46:20;6.25;;;1.23;;
45476;SDS011;31958;51.756;-2.556;2024-02-14T10:51:17;4.20;;;0.82;;
45476;SDS011;31958;51.756;-2.556;2024-02-14T10:53:44;6.43;;;0.90;;
45476;SDS011;31958;51.756;-2.556;2024-02-14T10:56:11;7.35;;;1.15;;
45476;SDS011;31958;51.756;-2.556;2024-02-14T10:58:38;4.55;;;0.98;;
45476;SDS011;31958;51.756;-2.556;2024-02-14T11:01:04;2.83;;;0.90;;
45476;SDS011;31958;51.756;-2.556;2024-02-14T11:03:32;6.93;;;1.23;;
45476;SDS011;31958;51.756;-2.556;2024-02-14T11:06:00;2.28;;;1.02;;
45476;SDS011;31958;51.756;-2.556;2024-02-14T11:08:28;8.23;;;1.60;;
45476;SDS011;31958;51.756;-2.556;2024-02-14T11:10:56;8.95;;;1.70;;
45476;SDS011;31958;51.756;-2.556;2024-02-14T11:13:29;7.10;;;1.65;;
45476;SDS011;31958;51.756;-2.556;2024-02-14T11:15:59;9.77;;;1.73;;
45476;SDS011;31958;51.756;-2.556;2024-02-14T11:18:25;7.63;;;1.63;;
45476;SDS011;31958;51.756;-2.556;2024-02-14T11:20:51;9.15;;;1.73;;
45476;SDS011;31958;51.756;-2.556;2024-02-14T11:23:21;13.38;;;2.03;;
45476;SDS011;31958;51.756;-2.556;2024-02-14T11:25:46;6.10;;;1.58;;
45476;SDS011;31958;51.756;-2.556;2024-02-14T11:28:13;9.63;;;2.72;;
45476;SDS011;31958;51.756;-2.556;2024-02-14T11:30:39;8.00;;;2.97;;
45476;SDS011;31958;51.756;-2.556;2024-02-14T11:33:18;19.95;;;8.40;;
45476;SDS011;31958;51.756;-2.556;2024-02-14T11:35:49;10.27;;;4.68;;
45476;SDS011;31958;51.756;-2.556;2024-02-14T11:38:18;10.07;;;3.00;;
45476;SDS011;31958;51.756;-2.556;2024-02-14T11:40:44;7.88;;;2.08;;
45476;SDS011;31958;51.756;-2.556;2024-02-14T11:43:13;10.55;;;1.60;;
45476;SDS011;31958;51.756;-2.556;2024-02-14T11:45:39;7.72;;;1.67;;
45476;SDS011;31958;51.756;-2.556;2024-02-14T11:48:07;11.73;;;1.65;;
45476;SDS011;31958;51.756;-2.556;2024-02-14T11:50:33;16.25;;;2.15;;
45476;SDS011;31958;51.756;-2.556;2024-02-14T11:52:59;10.77;;;2.00;;
45476;SDS011;31958;51.756;-2.556;2024-02-14T11:55:28;13.52;;;2.30;;
45476;SDS011;31958;51.756;-2.556;2024-02-14T11:57:54;8.80;;;1.83;;
45476;SDS011;31958;51.756;-2.556;2024-02-14T12:00:20;10.60;;;2.10;;
45476;SDS011;31958;51.756;-2.556;2024-02-14T12:02:45;9.70;;;1.60;;
45476;SDS011;31958;51.756;-2.556;2024-02-14T12:05:10;10.90;;;1.67;;
45476;SDS011;31958;51.756;-2.556;2024-02-14T12:07:36;14.63;;;1.88;;
45476;SDS011;31958;51.756;-2.556;2024-02-14T12:10:02;8.25;;;1.35;;
45476;SDS011;31958;51.756;-2.556;2024-02-14T12:12:28;13.95;;;1.80;;
45476;SDS011;31958;51.756;-2.556;2024-02-14T12:14:53;11.88;;;1.92;;
45476;SDS011;31958;51.756;-2.556;2024-02-14T12:17:18;13.43;;;1.73;;
45476;SDS011;31958;51.756;-2.556;2024-02-14T12:19:44;14.70;;;1.60;;
45476;SDS011;31958;51.756;-2.556;2024-02-14T12:22:10;8.98;;;1.90;;
45476;SDS011;31958;51.756;-2.556;2024-02-14T12:24:42;13.50;;;1.85;;
45476;SDS011;31958;51.756;-2.556;2024-02-14T12:27:09;8.00;;;2.00;;
45476;SDS011;31958;51.756;-2.556;2024-02-14T12:29:34;10.60;;;1.63;;
45476;SDS011;31958;51.756;-2.556;2024-02-14T12:32:06;9.25;;;1.63;;
45476;SDS011;31958;51.756;-2.556;2024-02-14T12:34:32;18.65;;;1.80;;
45476;SDS011;31958;51.756;-2.556;2024-02-14T12:36:58;10.95;;;2.15;;
45476;SDS011;31958;51.756;-2.556;2024-02-14T12:39:26;9.20;;;1.70;;
45476;SDS011;31958;51.756;-2.556;2024-02-14T12:41:51;18.58;;;3.53;;
45476;SDS011;31958;51.756;-2.556;2024-02-14T12:44:17;12.13;;;2.05;;
45476;SDS011;31958;51.756;-2.556;2024-02-14T12:46:43;14.35;;;2.45;;
45476;SDS011;31958;51.756;-2.556;2024-02-14T12:49:08;8.13;;;1.95;;
45476;SDS011;31958;51.756;-2.556;2024-02-14T12:51:34;18.08;;;2.75;;
45476;SDS011;31958;51.756;-2.556;2024-02-14T12:54:03;12.93;;;2.90;;
45476;SDS011;31958;51.756;-2.556;2024-02-14T12:56:30;12.30;;;2.17;;
45476;SDS011;31958;51.756;-2.556;2024-02-14T12:58:56;12.85;;;1.98;;
45476;SDS011;31958;51.756;-2.556;2024-02-14T13:01:22;10.25;;;1.90;;
45476;SDS011;31958;51.756;-2.556;2024-02-14T13:03:47;10.38;;;2.30;;
45476;SDS011;31958;51.756;-2.556;2024-02-14T13:06:13;7.30;;;1.40;;
45476;SDS011;31958;51.756;-2.556;2024-02-14T13:08:39;12.40;;;1.92;;
45476;SDS011;31958;51.756;-2.556;2024-02-14T13:11:04;8.75;;;1.77;;
45476;SDS011;31958;51.756;-2.556;2024-02-14T13:13:30;10.60;;;1.65;;
45476;SDS011;31958;51.756;-2.556;2024-02-14T13:15:55;14.48;;;1.85;;
45476;SDS011;31958;51.756;-2.556;2024-02-14T13:18:21;11.85;;;1.90;;
45476;SDS011;31958;51.756;-2.556;2024-02-14T13:20:46;11.68;;;2.72;;
45476;SDS011;31958;51.756;-2.556;2024-02-14T13:23:11;11.98;;;2.38;;
45476;SDS011;31958;51.756;-2.556;2024-02-14T13:25:39;7.05;;;1.75;;
45476;SDS011;31958;51.756;-2.556;2024-02-14T13:28:04;14.60;;;2.35;;
45476;SDS011;31958;51.756;-2.556;2024-02-14T13:30:30;15.38;;;2.20;;
45476;SDS011;31958;51.756;-2.556;2024-02-14T13:32:56;13.75;;;2.17;;
45476;SDS011;31958;51.756;-2.556;2024-02-14T13:35:21;17.83;;;3.08;;
45476;SDS011;31958;51.756;-2.556;2024-02-14T13:37:47;11.63;;;2.50;;
45476;SDS011;31958;51.756;-2.556;2024-02-14T13:40:12;10.82;;;2.60;;
45476;SDS011;31958;51.756;-2.556;2024-02-14T13:42:37;12.30;;;2.10;;
45476;SDS011;31958;51.756;-2.556;2024-02-14T13:45:04;13.52;;;2.42;;
45476;SDS011;31958;51.756;-2.556;2024-02-14T13:47:36;8.80;;;2.20;;
45476;SDS011;31958;51.756;-2.556;2024-02-14T13:50:08;11.77;;;2.58;;
45476;SDS011;31958;51.756;-2.556;2024-02-14T13:52:34;10.95;;;2.58;;
45476;SDS011;31958;51.756;-2.556;2024-02-14T13:55:01;14.07;;;3.15;;
45476;SDS011;31958;51.756;-2.556;2024-02-14T13:57:27;8.77;;;2.78;;
45476;SDS011;31958;51.756;-2.556;2024-02-14T13:59:54;10.93;;;2.08;;
45476;SDS011;31958;51.756;-2.556;2024-02-14T14:02:19;12.25;;;2.72;;
45476;SDS011;31958;51.756;-2.556;2024-02-14T14:04:45;6.90;;;1.83;;
45476;SDS011;31958;51.756;-2.556;2024-02-14T14:07:11;9.85;;;1.90;;
45476;SDS011;31958;51.756;-2.556;2024-02-14T14:09:36;8.73;;;1.67;;
45476;SDS011;31958;51.756;-2.556;2024-02-14T14:12:02;13.80;;;3.13;;
45476;SDS011;31958;51.756;-2.556;2024-02-14T14:14:27;6.32;;;1.50;;
45476;SDS011;31958;51.756;-2.556;2024-02-14T14:16:54;8.38;;;1.80;;
45476;SDS011;31958;51.756;-2.556;2024-02-14T14:19:19;5.75;;;2.25;;
45476;SDS011;31958;51.756;-2.556;2024-02-14T14:21:44;8.00;;;1.73;;
45476;SDS011;31958;51.756;-2.556;2024-02-14T14:24:10;7.88;;;2.20;;
45476;SDS011;31958;51.756;-2.556;2024-02-14T14:26:35;9.45;;;1.77;;